createdAt,value
2023-03-30T00:00:18.575Z,9.20
2023-03-30T00:02:47.373Z,9.20
2023-03-30T00:05:14.150Z,9.20
2023-03-30T00:07:44.621Z,9.20
2023-03-30T00:10:14.484Z,9.20
2023-03-30T00:12:42.258Z,9.20
2023-03-30T00:15:10.558Z,9.20
2023-03-30T00:17:37.158Z,9.20
2023-03-30T00:20:11.577Z,9.20
2023-03-30T00:22:39.949Z,9.20
2023-03-30T00:25:08.836Z,9.20
2023-03-30T00:27:36.707Z,9.20
2023-03-30T00:30:10.113Z,9.10
2023-03-30T00:32:36.823Z,9.20
2023-03-30T00:35:03.609Z,9.20
2023-03-30T00:37:30.175Z,9.20
2023-03-30T00:39:56.680Z,9.20
2023-03-30T00:42:23.811Z,9.10
2023-03-30T00:45:17.465Z,9.20
2023-03-30T00:47:50.148Z,9.20
2023-03-30T00:50:21.796Z,9.20
2023-03-30T00:52:52.165Z,9.20
2023-03-30T00:55:20.850Z,9.20
2023-03-30T00:57:49.276Z,9.20
2023-03-30T01:00:16.779Z,9.20
2023-03-30T01:02:53.207Z,9.20
2023-03-30T01:05:20.385Z,9.20
2023-03-30T01:07:49.806Z,9.20
2023-03-30T01:10:17.366Z,9.20
2023-03-30T01:12:44.837Z,9.20
2023-03-30T01:15:12.026Z,9.20
2023-03-30T01:18:08.676Z,9.20
2023-03-30T01:21:06.587Z,9.20
2023-03-30T01:24:15.803Z,9.20
2023-03-30T01:26:53.399Z,9.20
2023-03-30T01:29:57.199Z,9.20
2023-03-30T01:32:23.640Z,9.20
2023-03-30T01:35:27.886Z,9.20
2023-03-30T01:38:31.782Z,9.20
2023-03-30T01:41:16.390Z,9.20
2023-03-30T01:43:52.720Z,9.20
2023-03-30T01:46:31.141Z,9.20
2023-03-30T01:49:12.498Z,9.20
2023-03-30T01:51:47.228Z,9.20
2023-03-30T01:54:22.435Z,9.20
2023-03-30T01:56:54.160Z,9.20
2023-03-30T01:59:29.274Z,9.20
2023-03-30T02:02:00.566Z,9.10
2023-03-30T02:04:29.287Z,9.20
2023-03-30T02:07:03.974Z,9.20
2023-03-30T02:09:32.501Z,9.20
2023-03-30T02:12:02.021Z,9.20
2023-03-30T02:14:32.665Z,9.20
2023-03-30T02:17:07.947Z,9.20
2023-03-30T02:19:34.468Z,9.20
2023-03-30T02:22:01.499Z,9.20
2023-03-30T02:24:31.402Z,9.10
2023-03-30T02:27:00.143Z,9.10
2023-03-30T02:29:28.194Z,9.20
2023-03-30T02:31:57.966Z,9.10
2023-03-30T02:34:46.151Z,9.10
2023-03-30T02:37:25.865Z,9.10
2023-03-30T02:40:44.015Z,9.10
2023-03-30T02:43:28.387Z,9.10
2023-03-30T02:46:33.021Z,9.10
2023-03-30T02:49:24.031Z,9.10
2023-03-30T02:52:06.891Z,9.10
2023-03-30T02:54:48.558Z,9.10
2023-03-30T02:57:25.065Z,9.10
2023-03-30T03:00:08.154Z,9.10
2023-03-30T03:02:41.301Z,9.10
2023-03-30T03:05:09.548Z,9.10
2023-03-30T03:07:36.431Z,9.10
2023-03-30T03:10:03.230Z,9.10
2023-03-30T03:12:29.759Z,9.10
2023-03-30T03:14:56.289Z,9.10
2023-03-30T03:17:22.944Z,9.00
2023-03-30T03:19:49.918Z,9.00
2023-03-30T03:22:16.857Z,9.00
2023-03-30T03:24:44.637Z,9.00
2023-03-30T03:27:11.678Z,9.00
2023-03-30T03:29:38.307Z,9.00
2023-03-30T03:32:04.934Z,9.00
2023-03-30T03:34:31.525Z,8.90
2023-03-30T03:36:59.076Z,8.90
2023-03-30T03:39:27.492Z,8.90
2023-03-30T03:41:54.069Z,8.90
2023-03-30T03:44:20.794Z,8.90
2023-03-30T03:46:47.360Z,8.90
2023-03-30T03:49:14.040Z,8.90
2023-03-30T03:51:40.565Z,8.90
2023-03-30T03:54:09.122Z,8.90
2023-03-30T03:56:35.745Z,8.90
2023-03-30T03:59:03.463Z,8.90
2023-03-30T04:01:30.660Z,8.90
2023-03-30T04:03:57.362Z,8.90
2023-03-30T04:06:24.022Z,8.90
2023-03-30T04:08:50.672Z,8.90
2023-03-30T04:11:17.736Z,8.90
2023-03-30T04:13:44.418Z,8.90
2023-03-30T04:16:10.972Z,8.90
2023-03-30T04:18:38.318Z,8.90
2023-03-30T04:21:07.097Z,8.90
2023-03-30T04:23:36.801Z,8.90
2023-03-30T04:26:07.896Z,8.90
2023-03-30T04:28:35.460Z,8.90
2023-03-30T04:31:04.503Z,8.90
2023-03-30T04:33:34.938Z,8.90
2023-03-30T04:36:02.144Z,8.90
2023-03-30T04:38:30.042Z,8.90
2023-03-30T04:40:56.986Z,9.00
2023-03-30T04:43:24.448Z,9.00
2023-03-30T04:45:56.209Z,8.90
2023-03-30T04:48:23.907Z,9.00
2023-03-30T04:50:51.129Z,9.00
2023-03-30T04:53:18.280Z,9.00
2023-03-30T04:55:49.784Z,9.00
2023-03-30T04:58:16.906Z,9.00
2023-03-30T05:00:43.429Z,9.00
2023-03-30T05:03:10.169Z,9.00
2023-03-30T05:05:36.964Z,9.00
2023-03-30T05:08:04.000Z,9.00
2023-03-30T05:10:30.751Z,9.00
2023-03-30T05:12:57.247Z,9.00
2023-03-30T05:15:23.839Z,9.00
2023-03-30T05:17:50.419Z,9.10
2023-03-30T05:20:18.069Z,9.10
2023-03-30T05:22:46.861Z,9.10
2023-03-30T05:25:13.468Z,9.10
2023-03-30T05:27:40.177Z,9.20
2023-03-30T05:30:08.255Z,9.20
2023-03-30T05:32:34.908Z,9.20
2023-03-30T05:35:01.451Z,9.20
2023-03-30T05:37:28.007Z,9.30
2023-03-30T05:39:54.848Z,9.30
2023-03-30T05:42:21.570Z,9.30
2023-03-30T05:44:48.208Z,9.40
2023-03-30T05:47:16.367Z,9.40
2023-03-30T05:49:43.318Z,9.40
2023-03-30T05:52:09.832Z,9.50
2023-03-30T05:54:36.368Z,9.50
2023-03-30T05:57:03.969Z,9.50
2023-03-30T05:59:31.004Z,9.60
2023-03-30T06:01:57.562Z,9.60
2023-03-30T06:04:24.177Z,9.60
2023-03-30T06:06:50.747Z,9.70
2023-03-30T06:09:17.349Z,9.70
2023-03-30T06:11:43.906Z,9.70
2023-03-30T06:14:10.627Z,9.70
2023-03-30T06:16:37.212Z,9.80
2023-03-30T06:19:03.808Z,9.80
2023-03-30T06:21:30.325Z,9.80
2023-03-30T06:23:56.864Z,9.80
2023-03-30T06:26:23.509Z,9.80
2023-03-30T06:28:50.029Z,9.80
2023-03-30T06:31:16.678Z,9.80
2023-03-30T06:33:43.555Z,9.90
2023-03-30T06:36:12.593Z,9.90
2023-03-30T06:38:39.452Z,9.90
2023-03-30T06:41:09.751Z,9.90
2023-03-30T06:43:36.612Z,9.90
2023-03-30T06:46:03.497Z,10.00
2023-03-30T06:48:30.242Z,10.00
2023-03-30T06:50:57.098Z,10.00
2023-03-30T06:53:24.217Z,10.00
2023-03-30T06:55:56.792Z,10.00
2023-03-30T06:58:24.750Z,10.00
2023-03-30T07:00:52.234Z,10.10
2023-03-30T07:03:19.682Z,10.10
2023-03-30T07:05:50.610Z,10.20
2023-03-30T07:08:18.299Z,10.20
2023-03-30T07:10:46.999Z,10.20
2023-03-30T07:13:13.977Z,10.30
2023-03-30T07:15:40.731Z,10.30
2023-03-30T07:18:08.239Z,10.30
2023-03-30T07:20:35.206Z,10.40
2023-03-30T07:23:02.640Z,10.40
2023-03-30T07:32:50.850Z,10.50
2023-03-30T07:35:18.275Z,10.70
2023-03-30T07:37:44.935Z,10.70
2023-03-30T07:40:12.855Z,10.70
2023-03-30T07:42:39.615Z,10.80
2023-03-30T07:45:06.980Z,10.80
